createdAt,value
2017-02-08T00:00:55.084Z,0
2017-02-08T00:02:04.906Z,0
2017-02-08T00:03:14.713Z,0
2017-02-08T00:04:24.528Z,0
2017-02-08T00:05:33.590Z,0
2017-02-08T00:06:43.011Z,0
2017-02-08T00:07:52.049Z,0
2017-02-08T00:09:00.702Z,0
2017-02-08T00:10:11.293Z,0
2017-02-08T00:11:20.715Z,0
2017-02-08T00:12:30.990Z,0
2017-02-08T00:13:40.416Z,0
2017-02-08T00:14:49.878Z,0
2017-02-08T00:15:59.685Z,0
2017-02-08T00:17:09.894Z,0
2017-02-08T00:18:19.342Z,0
2017-02-08T00:19:29.551Z,0
2017-02-08T00:20:38.972Z,0
2017-02-08T00:21:48.840Z,0
2017-02-08T00:22:58.295Z,0
2017-02-08T00:24:08.105Z,0
2017-02-08T00:25:16.767Z,0
2017-02-08T00:26:26.203Z,0
2017-02-08T00:27:35.632Z,0
2017-02-08T00:28:45.442Z,0
2017-02-08T00:29:54.870Z,0
2017-02-08T00:31:04.299Z,0
2017-02-08T00:32:12.967Z,0
2017-02-08T00:33:22.781Z,0
2017-02-08T00:34:31.885Z,0
2017-02-08T00:35:41.321Z,0
2017-02-08T00:36:51.134Z,0
2017-02-08T00:38:00.571Z,0
2017-02-08T00:39:10.030Z,0
2017-02-08T00:40:19.526Z,0
2017-02-08T00:41:28.955Z,0
2017-02-08T00:42:38.378Z,0
2017-02-08T00:43:47.508Z,0
2017-02-08T00:44:57.407Z,0
2017-02-08T00:46:07.306Z,0
2017-02-08T00:47:16.751Z,0
2017-02-08T00:48:26.175Z,0
2017-02-08T00:49:36.051Z,0
2017-02-08T00:50:46.260Z,0
2017-02-08T00:51:56.451Z,0
2017-02-08T00:53:05.116Z,0
2017-02-08T00:54:14.537Z,0
2017-02-08T00:55:23.274Z,0
2017-02-08T00:56:32.701Z,0
2017-02-08T00:57:42.270Z,0
2017-02-08T00:58:51.308Z,0
2017-02-08T01:00:00.022Z,0
2017-02-08T01:01:09.445Z,0
2017-02-08T01:02:18.964Z,0
2017-02-08T01:03:28.773Z,0
2017-02-08T01:04:38.618Z,0
2017-02-08T01:05:48.174Z,0
2017-02-08T01:06:57.213Z,0
2017-02-08T01:08:06.303Z,0
2017-02-08T01:09:15.350Z,0
2017-02-08T01:10:24.779Z,0
2017-02-08T01:11:34.587Z,0
2017-02-08T01:12:44.028Z,0
2017-02-08T01:13:53.085Z,0
2017-02-08T01:15:02.605Z,0
2017-02-08T01:16:11.657Z,0
2017-02-08T01:17:20.317Z,0
2017-02-08T01:18:28.987Z,0
2017-02-08T01:19:38.425Z,0
2017-02-08T01:20:47.464Z,0
2017-02-08T01:21:56.144Z,0
2017-02-08T01:23:05.572Z,0
2017-02-08T01:24:15.388Z,0
2017-02-08T01:25:24.656Z,0
2017-02-08T01:26:33.742Z,0
2017-02-08T01:27:43.191Z,0
2017-02-08T01:28:52.700Z,0
2017-02-08T01:30:02.518Z,0
2017-02-08T01:31:12.325Z,0
2017-02-08T01:32:22.514Z,0
2017-02-08T01:33:31.942Z,0
2017-02-08T01:34:40.986Z,0
2017-02-08T01:35:50.441Z,0
2017-02-08T01:36:59.878Z,0
2017-02-08T01:38:08.934Z,0
2017-02-08T01:39:17.969Z,0
2017-02-08T01:40:27.470Z,0
2017-02-08T01:41:37.011Z,0
2017-02-08T01:42:47.225Z,0
2017-02-08T01:43:56.392Z,0
2017-02-08T01:45:05.827Z,0
2017-02-08T01:46:15.674Z,0
2017-02-08T01:47:25.167Z,0
2017-02-08T01:48:34.597Z,0
2017-02-08T01:49:44.416Z,0
2017-02-08T01:50:53.463Z,0
2017-02-08T01:52:02.531Z,0
2017-02-08T01:53:12.361Z,0
2017-02-08T01:54:21.040Z,0
2017-02-08T01:55:30.607Z,0
2017-02-08T01:56:40.049Z,0
2017-02-08T01:57:49.325Z,0
2017-02-08T01:58:58.388Z,0
2017-02-08T02:00:07.880Z,0
2017-02-08T02:01:17.687Z,0
2017-02-08T02:02:26.353Z,0
2017-02-08T02:03:35.390Z,0
2017-02-08T02:04:44.823Z,0
2017-02-08T02:05:55.037Z,0
2017-02-08T02:07:04.467Z,0
2017-02-08T02:08:14.329Z,0
2017-02-08T02:09:23.375Z,0
2017-02-08T02:10:33.182Z,0
2017-02-08T02:11:43.025Z,0
2017-02-08T02:12:52.873Z,0
2017-02-08T02:14:02.299Z,0
2017-02-08T02:15:11.722Z,0
2017-02-08T02:16:21.527Z,0
2017-02-08T02:17:31.102Z,0
2017-02-08T02:18:40.184Z,0
2017-02-08T02:19:49.241Z,0
2017-02-08T02:20:58.309Z,0
2017-02-08T02:22:07.747Z,0
2017-02-08T02:23:17.557Z,0
2017-02-08T02:24:26.830Z,0
2017-02-08T02:25:35.874Z,0
2017-02-08T02:26:46.115Z,0
2017-02-08T02:27:55.534Z,0
2017-02-08T02:29:05.396Z,0
2017-02-08T02:30:14.077Z,0
2017-02-08T02:31:23.501Z,0
2017-02-08T02:32:32.975Z,0
2017-02-08T02:33:42.419Z,0
2017-02-08T02:34:52.055Z,0
2017-02-08T02:36:01.935Z,0
2017-02-08T02:37:11.369Z,0
2017-02-08T02:38:20.414Z,0
2017-02-08T02:39:30.346Z,0
2017-02-08T02:40:39.827Z,0
2017-02-08T02:41:49.773Z,0
2017-02-08T02:42:58.840Z,0
2017-02-08T02:44:08.359Z,0
2017-02-08T02:45:17.508Z,0
2017-02-08T02:46:27.314Z,0
2017-02-08T02:47:36.843Z,0
2017-02-08T02:48:46.265Z,0
2017-02-08T02:49:55.307Z,0
2017-02-08T02:51:05.609Z,0
2017-02-08T02:52:15.031Z,0
2017-02-08T02:53:24.081Z,0
2017-02-08T02:54:33.885Z,0
2017-02-08T02:55:42.923Z,0
2017-02-08T02:56:52.731Z,0
2017-02-08T02:58:02.157Z,0
2017-02-08T02:59:11.583Z,0
2017-02-08T03:00:21.394Z,0
2017-02-08T03:01:31.206Z,0
2017-02-08T03:02:41.447Z,0
2017-02-08T03:03:50.489Z,0
2017-02-08T03:04:59.151Z,0
2017-02-08T03:06:08.961Z,0
2017-02-08T03:07:18.768Z,0
2017-02-08T03:08:28.196Z,0
2017-02-08T03:09:37.621Z,0
2017-02-08T03:10:46.663Z,0
2017-02-08T03:11:56.857Z,0
2017-02-08T03:13:05.899Z,0
2017-02-08T03:14:15.325Z,0
2017-02-08T03:15:24.760Z,0
2017-02-08T03:16:34.186Z,0
2017-02-08T03:17:44.402Z,0
2017-02-08T03:18:54.210Z,0
2017-02-08T03:20:04.397Z,0
2017-02-08T03:21:13.818Z,0
2017-02-08T03:22:23.628Z,0
2017-02-08T03:23:33.448Z,0
2017-02-08T03:24:43.267Z,0
2017-02-08T03:25:53.070Z,0
2017-02-08T03:27:02.501Z,0
2017-02-08T03:28:11.928Z,0
2017-02-08T03:29:21.359Z,0
2017-02-08T03:30:30.401Z,0
2017-02-08T03:31:39.447Z,0
2017-02-08T03:32:48.484Z,0
2017-02-08T03:33:57.521Z,0
2017-02-08T03:35:06.564Z,0
2017-02-08T03:36:15.230Z,0
2017-02-08T03:37:24.740Z,0
2017-02-08T03:38:34.550Z,0
2017-02-08T03:39:43.590Z,0
2017-02-08T03:40:52.627Z,0
2017-02-08T03:42:02.442Z,0
2017-02-08T03:43:11.108Z,0
2017-02-08T03:44:20.534Z,0
2017-02-08T03:45:29.575Z,0
2017-02-08T03:46:39.384Z,0
2017-02-08T03:47:48.806Z,0
2017-02-08T03:48:57.844Z,0
2017-02-08T03:50:06.508Z,0
2017-02-08T03:51:16.316Z,0
2017-02-08T03:52:25.735Z,0
2017-02-08T03:53:34.773Z,0
2017-02-08T03:54:44.244Z,0
2017-02-08T03:55:54.432Z,0
2017-02-08T03:57:04.237Z,0
2017-02-08T03:58:14.432Z,0
2017-02-08T03:59:23.856Z,0
2017-02-08T04:00:32.896Z,0
2017-02-08T04:01:42.319Z,0
2017-02-08T04:02:51.748Z,0
2017-02-08T04:04:01.555Z,0
2017-02-08T04:05:11.364Z,0
2017-02-08T04:06:20.788Z,0
2017-02-08T04:07:30.214Z,0
2017-02-08T04:08:40.405Z,0
2017-02-08T04:09:50.209Z,0
2017-02-08T04:11:00.015Z,0
2017-02-08T04:12:09.491Z,0
2017-02-08T04:13:18.916Z,0
2017-02-08T04:14:28.342Z,0
2017-02-08T04:15:38.150Z,0
2017-02-08T04:16:47.610Z,0
2017-02-08T04:17:57.421Z,0
2017-02-08T04:19:07.223Z,0
2017-02-08T04:20:16.264Z,0
2017-02-08T04:21:25.687Z,0
2017-02-08T04:22:35.490Z,0
2017-02-08T04:23:44.916Z,0
2017-02-08T04:24:54.343Z,0
2017-02-08T04:26:03.769Z,0
2017-02-08T04:27:12.425Z,0
2017-02-08T04:28:21.467Z,0
2017-02-08T04:29:31.277Z,0
2017-02-08T04:30:41.466Z,0
2017-02-08T04:31:51.275Z,0
2017-02-08T04:33:01.082Z,0
2017-02-08T04:34:10.119Z,0
2017-02-08T04:35:19.591Z,0
2017-02-08T04:36:29.016Z,0
2017-02-08T04:37:38.823Z,0
2017-02-08T04:38:48.631Z,0
2017-02-08T04:39:58.055Z,0
2017-02-08T04:41:07.494Z,0
2017-02-08T04:42:16.919Z,0
2017-02-08T04:43:26.722Z,0
2017-02-08T04:44:36.533Z,0
2017-02-08T04:45:45.960Z,0
2017-02-08T04:46:55.767Z,0
2017-02-08T04:48:04.810Z,0
2017-02-08T04:49:14.615Z,0
2017-02-08T04:50:23.661Z,0
2017-02-08T04:51:33.880Z,0
2017-02-08T04:52:43.354Z,0
2017-02-08T04:53:52.396Z,0
2017-02-08T04:55:01.822Z,0
2017-02-08T04:56:11.633Z,0
2017-02-08T04:57:21.824Z,0
2017-02-08T04:58:30.487Z,0
2017-02-08T04:59:39.531Z,0
2017-02-08T05:00:48.954Z,0
2017-02-08T05:01:58.764Z,0
2017-02-08T05:03:08.188Z,0
2017-02-08T05:04:17.233Z,0
2017-02-08T05:05:26.659Z,0
2017-02-08T05:06:36.463Z,0
2017-02-08T05:07:45.504Z,0
2017-02-08T05:08:54.932Z,0
2017-02-08T05:10:03.593Z,0
2017-02-08T05:11:12.639Z,0
2017-02-08T05:12:22.065Z,0
2017-02-08T05:13:31.489Z,0
2017-02-08T05:14:40.908Z,0
2017-02-08T05:15:50.328Z,0
2017-02-08T05:16:59.748Z,0
2017-02-08T05:18:09.550Z,0
2017-02-08T05:19:18.970Z,0
2017-02-08T05:20:28.777Z,0
2017-02-08T05:21:38.201Z,0
2017-02-08T05:22:48.009Z,0
2017-02-08T05:23:57.817Z,0
2017-02-08T05:25:07.245Z,0
2017-02-08T05:26:17.108Z,0
2017-02-08T05:27:26.920Z,0
2017-02-08T05:28:35.960Z,0
2017-02-08T05:29:45.384Z,0
2017-02-08T05:30:55.193Z,0
2017-02-08T05:32:04.233Z,0
2017-02-08T05:33:14.037Z,0
2017-02-08T05:34:23.460Z,0
2017-02-08T05:35:32.123Z,0
2017-02-08T05:36:42.309Z,0
2017-02-08T05:37:52.121Z,0
2017-02-08T05:39:01.926Z,0
2017-02-08T05:40:11.759Z,0
2017-02-08T05:41:20.799Z,0
2017-02-08T05:42:30.228Z,0
2017-02-08T05:43:39.650Z,0
2017-02-08T05:44:49.455Z,0
2017-02-08T05:45:58.500Z,0
2017-02-08T05:47:07.927Z,0
2017-02-08T05:48:17.352Z,0
2017-02-08T05:49:26.442Z,0
2017-02-08T05:50:36.635Z,0
2017-02-08T05:51:46.055Z,0
2017-02-08T05:52:56.243Z,0
2017-02-08T05:54:06.052Z,0
2017-02-08T05:55:15.475Z,0
2017-02-08T05:56:24.896Z,0
2017-02-08T05:57:34.699Z,0
2017-02-08T05:58:44.126Z,0
2017-02-08T05:59:53.168Z,0
2017-02-08T06:01:03.745Z,0
2017-02-08T06:02:13.938Z,0
2017-02-08T06:03:23.741Z,0
2017-02-08T06:04:33.550Z,0
2017-02-08T06:05:42.207Z,0
2017-02-08T06:06:51.632Z,0
2017-02-08T06:08:01.057Z,0
2017-02-08T06:09:11.633Z,0
2017-02-08T06:10:21.448Z,0
2017-02-08T06:11:30.872Z,0
2017-02-08T06:12:39.580Z,0
2017-02-08T06:13:49.387Z,0
2017-02-08T06:14:58.047Z,0
2017-02-08T06:16:07.864Z,0
2017-02-08T06:17:16.909Z,0
2017-02-08T06:18:26.720Z,0
2017-02-08T06:19:36.914Z,0
2017-02-08T06:20:45.580Z,0
2017-02-08T06:21:55.381Z,0
2017-02-08T06:23:04.806Z,0
2017-02-08T06:24:14.231Z,0
2017-02-08T06:25:24.045Z,0
2017-02-08T06:26:33.855Z,0
2017-02-08T06:27:42.512Z,0
2017-02-08T06:28:52.705Z,0
2017-02-08T06:30:02.568Z,0
2017-02-08T06:31:11.996Z,0
2017-02-08T06:32:22.189Z,0
2017-02-08T06:33:31.617Z,0
2017-02-08T06:34:41.419Z,0
2017-02-08T06:35:50.890Z,0
2017-02-08T06:37:00.698Z,0
2017-02-08T06:38:10.131Z,0
2017-02-08T06:39:19.560Z,0
2017-02-08T06:40:28.603Z,0
2017-02-08T06:41:38.799Z,0
2017-02-08T06:42:48.613Z,0
2017-02-08T06:43:58.043Z,0
2017-02-08T06:45:08.242Z,0
2017-02-08T06:46:18.054Z,0
2017-02-08T06:47:27.142Z,0
2017-02-08T06:48:36.578Z,0
2017-02-08T06:49:46.007Z,0
2017-02-08T06:50:54.667Z,0
2017-02-08T06:52:03.710Z,0
2017-02-08T06:53:12.761Z,0
2017-02-08T06:54:22.190Z,0
2017-02-08T06:55:31.613Z,0
2017-02-08T06:56:41.417Z,0
2017-02-08T06:57:50.839Z,0
2017-02-08T06:59:00.658Z,0
2017-02-08T07:00:10.090Z,5
2017-02-08T07:01:19.517Z,5
2017-02-08T07:02:28.943Z,5
2017-02-08T07:03:38.752Z,5
2017-02-08T07:04:48.191Z,5
2017-02-08T07:05:58.008Z,5
2017-02-08T07:07:07.433Z,5
2017-02-08T07:08:16.483Z,5
2017-02-08T07:09:26.292Z,5
2017-02-08T07:10:35.723Z,5
2017-02-08T07:11:45.573Z,10
2017-02-08T07:12:55.380Z,10
2017-02-08T07:14:05.190Z,10
2017-02-08T07:15:14.612Z,10
2017-02-08T07:16:24.422Z,15
2017-02-08T07:17:34.226Z,15
2017-02-08T07:18:43.650Z,15
2017-02-08T07:19:53.084Z,15
2017-02-08T07:21:02.511Z,20
2017-02-08T07:22:11.941Z,20
2017-02-08T07:23:22.134Z,20
2017-02-08T07:24:31.556Z,25
2017-02-08T07:25:40.978Z,25
2017-02-08T07:26:50.405Z,30
2017-02-08T07:27:59.830Z,30
2017-02-08T07:29:09.637Z,30
2017-02-08T07:30:19.059Z,35
2017-02-08T07:31:28.867Z,35
2017-02-08T07:32:38.678Z,35
2017-02-08T07:33:48.103Z,40
2017-02-08T07:34:57.911Z,40
2017-02-08T07:36:06.958Z,40
2017-02-08T07:37:17.152Z,45
2017-02-08T07:38:27.344Z,45
2017-02-08T07:39:36.766Z,50
2017-02-08T07:40:45.809Z,50
2017-02-08T07:41:55.233Z,55
2017-02-08T07:43:05.043Z,55
2017-02-08T07:44:14.465Z,60
2017-02-08T07:45:24.275Z,60
2017-02-08T07:46:33.701Z,65
2017-02-08T07:47:42.366Z,70
2017-02-08T07:48:51.789Z,75
2017-02-08T07:50:00.831Z,75
2017-02-08T07:51:10.259Z,80
2017-02-08T07:52:19.685Z,80
2017-02-08T07:53:29.489Z,85
2017-02-08T07:54:38.524Z,85
2017-02-08T07:55:48.329Z,85
2017-02-08T07:56:57.842Z,85
2017-02-08T07:58:07.651Z,85
2017-02-08T07:59:17.457Z,85
2017-02-08T08:00:26.120Z,90
2017-02-08T08:01:35.160Z,90
2017-02-08T08:02:44.632Z,90
2017-02-08T08:03:53.673Z,95
2017-02-08T08:05:03.485Z,95
2017-02-08T08:06:12.144Z,95
2017-02-08T08:07:21.186Z,90
2017-02-08T08:08:30.227Z,90
2017-02-08T08:09:40.037Z,90
2017-02-08T08:10:49.845Z,90
2017-02-08T08:11:58.888Z,95
2017-02-08T08:13:07.936Z,95
2017-02-08T08:14:17.798Z,95
2017-02-08T08:15:27.225Z,95
2017-02-08T08:16:36.651Z,95
2017-02-08T08:17:46.462Z,95
2017-02-08T08:18:55.888Z,95
2017-02-08T08:20:05.359Z,100
2017-02-08T08:21:15.172Z,100
2017-02-08T08:22:24.983Z,100
2017-02-08T08:23:34.801Z,100
2017-02-08T08:24:44.613Z,105
2017-02-08T08:25:54.471Z,105
2017-02-08T08:27:04.284Z,110
2017-02-08T08:28:13.324Z,115
2017-02-08T08:29:23.131Z,120
2017-02-08T08:30:32.179Z,125
2017-02-08T08:31:42.375Z,135
2017-02-08T08:32:51.799Z,135
2017-02-08T08:34:01.987Z,145
2017-02-08T08:35:11.790Z,150
2017-02-08T08:36:20.449Z,150
2017-02-08T08:37:29.925Z,155
2017-02-08T08:38:38.972Z,155
2017-02-08T08:39:48.014Z,155
2017-02-08T08:40:57.814Z,155
2017-02-08T08:42:08.009Z,150
2017-02-08T08:43:17.088Z,150
2017-02-08T08:44:26.896Z,150
2017-02-08T08:45:36.326Z,150
2017-02-08T08:46:46.131Z,155
2017-02-08T08:47:55.936Z,160
2017-02-08T08:49:05.827Z,160
2017-02-08T08:50:15.251Z,165
2017-02-08T08:51:25.060Z,165
2017-02-08T08:52:34.863Z,170
2017-02-08T08:53:45.054Z,170
2017-02-08T08:54:54.861Z,165
2017-02-08T08:56:04.287Z,165
2017-02-08T08:57:13.714Z,165
2017-02-08T08:58:23.905Z,160
2017-02-08T08:59:33.332Z,160
2017-02-08T09:00:42.806Z,160
2017-02-08T09:01:52.231Z,165
2017-02-08T09:03:01.659Z,165
2017-02-08T09:04:11.854Z,165
2017-02-08T09:05:20.901Z,175
2017-02-08T09:06:29.607Z,180
2017-02-08T09:07:39.416Z,185
2017-02-08T09:08:48.844Z,185
2017-02-08T09:09:58.654Z,190
2017-02-08T09:11:08.459Z,195
2017-02-08T09:12:17.881Z,195
2017-02-08T09:13:28.072Z,200
2017-02-08T09:14:37.885Z,200
2017-02-08T09:15:47.691Z,200
2017-02-08T09:16:57.114Z,205
2017-02-08T09:18:06.999Z,205
2017-02-08T09:19:16.468Z,210
2017-02-08T09:20:25.508Z,210
2017-02-08T09:21:35.704Z,215
2017-02-08T09:22:45.511Z,220
2017-02-08T09:23:55.368Z,225
2017-02-08T09:25:04.791Z,225
2017-02-08T09:26:14.597Z,235
2017-02-08T09:27:23.639Z,230
2017-02-08T09:28:33.446Z,230
2017-02-08T09:29:42.541Z,230
2017-02-08T09:30:51.958Z,235
2017-02-08T09:32:02.146Z,235
2017-02-08T09:33:11.953Z,235
2017-02-08T09:34:21.384Z,235
2017-02-08T09:35:31.195Z,235
2017-02-08T09:36:41.003Z,235
2017-02-08T09:37:50.426Z,235
2017-02-08T09:39:00.237Z,235
2017-02-08T09:40:10.054Z,235
2017-02-08T09:41:19.485Z,235
2017-02-08T09:42:28.528Z,230
2017-02-08T09:43:38.337Z,230
2017-02-08T09:44:48.143Z,235
2017-02-08T09:45:57.567Z,235
2017-02-08T09:47:07.043Z,240
2017-02-08T09:48:16.851Z,245
2017-02-08T09:49:26.273Z,250
2017-02-08T09:50:36.086Z,255
2017-02-08T09:51:45.888Z,265
2017-02-08T09:52:55.742Z,270
2017-02-08T09:54:05.936Z,275
2017-02-08T09:55:14.979Z,280
2017-02-08T09:56:24.020Z,285
2017-02-08T09:57:33.829Z,290
2017-02-08T09:58:42.876Z,295
2017-02-08T09:59:53.079Z,295
2017-02-08T10:01:02.506Z,300
2017-02-08T10:02:11.927Z,305
2017-02-08T10:03:21.350Z,305
2017-02-08T10:04:30.780Z,310
2017-02-08T10:05:39.822Z,310
2017-02-08T10:06:48.867Z,315
2017-02-08T10:07:58.293Z,315
2017-02-08T10:09:07.340Z,315
2017-02-08T10:10:17.144Z,315
2017-02-08T10:11:26.952Z,315
2017-02-08T10:12:35.996Z,320
2017-02-08T10:13:45.803Z,320
2017-02-08T10:14:56.002Z,320
2017-02-08T10:16:05.816Z,320
2017-02-08T10:17:14.473Z,320
2017-02-08T10:18:23.519Z,320
2017-02-08T10:19:33.333Z,320
2017-02-08T10:20:42.768Z,325
2017-02-08T10:21:52.625Z,325
2017-02-08T10:23:02.050Z,330
2017-02-08T10:24:11.858Z,330
2017-02-08T10:25:21.287Z,335
2017-02-08T10:26:31.094Z,340
2017-02-08T10:27:40.135Z,345
2017-02-08T10:28:49.561Z,345
2017-02-08T10:29:59.372Z,345
2017-02-08T10:31:09.182Z,345
2017-02-08T10:32:18.994Z,345
2017-02-08T10:33:28.046Z,345
2017-02-08T10:34:38.236Z,345
2017-02-08T10:35:47.661Z,345
2017-02-08T10:36:57.088Z,345
2017-02-08T10:38:06.897Z,345
2017-02-08T10:39:16.708Z,345
2017-02-08T10:40:26.896Z,345
2017-02-08T10:41:37.085Z,345
2017-02-08T10:42:46.888Z,350
2017-02-08T10:43:56.701Z,350
2017-02-08T10:45:06.184Z,355
2017-02-08T10:46:16.375Z,360
2017-02-08T10:47:25.418Z,365
2017-02-08T10:48:34.843Z,370
2017-02-08T10:49:44.271Z,375
2017-02-08T10:50:54.082Z,375
2017-02-08T10:52:03.503Z,380
2017-02-08T10:53:12.545Z,385
2017-02-08T10:54:21.970Z,390
2017-02-08T10:55:31.814Z,390
2017-02-08T10:56:41.673Z,385
2017-02-08T10:57:51.105Z,390
2017-02-08T10:59:00.917Z,390
2017-02-08T11:00:09.960Z,390
2017-02-08T11:01:19.002Z,390
2017-02-08T11:02:28.812Z,390
2017-02-08T11:03:37.858Z,390
2017-02-08T11:04:46.897Z,390
2017-02-08T11:05:56.338Z,390
2017-02-08T11:07:06.530Z,395
2017-02-08T11:08:16.342Z,395
2017-02-08T11:09:26.536Z,400
2017-02-08T11:10:36.734Z,400
2017-02-08T11:11:46.569Z,400
2017-02-08T11:12:57.153Z,400
2017-02-08T11:14:06.580Z,395
2017-02-08T11:15:15.625Z,395
2017-02-08T11:16:24.669Z,390
2017-02-08T11:17:34.482Z,390
2017-02-08T11:18:44.303Z,385
2017-02-08T11:19:53.400Z,385
2017-02-08T11:21:02.825Z,385
2017-02-08T11:22:13.403Z,385
2017-02-08T11:23:22.449Z,385
2017-02-08T11:24:31.877Z,385
2017-02-08T11:25:42.124Z,385
2017-02-08T11:26:51.932Z,390
2017-02-08T11:28:02.128Z,390
2017-02-08T11:29:10.791Z,390
2017-02-08T11:30:19.837Z,390
2017-02-08T11:31:29.372Z,390
2017-02-08T11:32:38.800Z,390
2017-02-08T11:33:47.871Z,395
2017-02-08T11:34:56.532Z,395
2017-02-08T11:36:05.958Z,400
2017-02-08T11:37:15.134Z,400
2017-02-08T11:38:24.949Z,400
2017-02-08T11:39:35.136Z,400
2017-02-08T11:40:44.563Z,400
2017-02-08T11:41:53.990Z,400
2017-02-08T11:43:03.131Z,405
2017-02-08T11:44:12.561Z,405
2017-02-08T11:45:21.988Z,410
2017-02-08T11:46:31.414Z,415
2017-02-08T11:47:40.070Z,420
2017-02-08T11:48:49.497Z,430
2017-02-08T11:49:58.542Z,435
2017-02-08T11:51:07.969Z,440
2017-02-08T11:52:17.397Z,445
2017-02-08T11:53:27.597Z,450
2017-02-08T11:54:37.122Z,450
2017-02-08T11:55:46.547Z,450
2017-02-08T11:56:56.361Z,450
2017-02-08T11:58:06.174Z,450
2017-02-08T11:59:15.984Z,450
2017-02-08T12:00:25.796Z,450
2017-02-08T12:01:35.615Z,455
2017-02-08T12:02:45.803Z,455
2017-02-08T12:03:54.850Z,465
2017-02-08T12:05:04.278Z,460
2017-02-08T12:06:13.420Z,460
2017-02-08T12:07:23.233Z,465
2017-02-08T12:08:32.661Z,455
2017-02-08T12:09:42.504Z,455
2017-02-08T12:10:52.314Z,450
2017-02-08T12:12:02.124Z,445
2017-02-08T12:13:11.934Z,440
2017-02-08T12:14:20.975Z,435
2017-02-08T12:15:29.637Z,430
2017-02-08T12:16:38.678Z,430
2017-02-08T12:17:47.820Z,425
2017-02-08T12:18:57.250Z,420
2017-02-08T12:20:07.452Z,415
2017-02-08T12:21:16.885Z,415
2017-02-08T12:22:26.311Z,410
2017-02-08T12:23:36.120Z,410
2017-02-08T12:24:46.313Z,410
2017-02-08T12:25:55.756Z,410
2017-02-08T12:27:05.565Z,415
2017-02-08T12:28:15.004Z,420
2017-02-08T12:29:23.765Z,420
2017-02-08T12:30:33.192Z,420
2017-02-08T12:31:42.242Z,430
2017-02-08T12:32:52.051Z,435
2017-02-08T12:34:01.860Z,450
2017-02-08T12:35:10.620Z,460
2017-02-08T12:36:20.051Z,475
2017-02-08T12:37:29.856Z,485
2017-02-08T12:38:39.287Z,495
2017-02-08T12:39:48.339Z,500
2017-02-08T12:40:57.765Z,495
2017-02-08T12:42:07.582Z,490
2017-02-08T12:43:16.643Z,485
2017-02-08T12:44:26.070Z,485
2017-02-08T12:45:35.499Z,485
2017-02-08T12:46:44.929Z,485
2017-02-08T12:47:53.970Z,485
2017-02-08T12:49:03.401Z,490
2017-02-08T12:50:12.832Z,495
2017-02-08T12:51:22.645Z,505
2017-02-08T12:52:32.176Z,510
2017-02-08T12:53:41.605Z,515
2017-02-08T12:54:50.650Z,520
2017-02-08T12:56:00.083Z,520
2017-02-08T12:57:09.898Z,515
2017-02-08T12:58:18.666Z,510
2017-02-08T12:59:28.099Z,510
2017-02-08T13:00:37.906Z,510
2017-02-08T13:01:47.722Z,515
2017-02-08T13:02:57.528Z,520
2017-02-08T13:04:07.058Z,525
2017-02-08T13:05:16.125Z,530
2017-02-08T13:06:25.550Z,535
2017-02-08T13:07:34.602Z,535
2017-02-08T13:08:44.426Z,535
2017-02-08T13:09:54.337Z,540
2017-02-08T13:11:03.762Z,535
2017-02-08T13:12:13.193Z,535
2017-02-08T13:13:23.002Z,535
2017-02-08T13:14:32.427Z,530
2017-02-08T13:15:41.474Z,530
2017-02-08T13:16:50.136Z,525
2017-02-08T13:17:59.192Z,520
2017-02-08T13:19:08.619Z,520
2017-02-08T13:20:18.046Z,525
2017-02-08T13:21:27.583Z,525
2017-02-08T13:22:37.774Z,530
2017-02-08T13:23:47.203Z,535
2017-02-08T13:24:56.245Z,530
2017-02-08T13:26:05.687Z,530
2017-02-08T13:27:14.831Z,525
2017-02-08T13:28:24.255Z,525
2017-02-08T13:29:33.691Z,520
2017-02-08T13:30:42.741Z,515
2017-02-08T13:31:52.555Z,515
2017-02-08T13:33:01.981Z,515
2017-02-08T13:34:11.410Z,510
2017-02-08T13:35:21.217Z,505
2017-02-08T13:36:30.258Z,495
2017-02-08T13:37:39.691Z,490
2017-02-08T13:38:49.609Z,480
2017-02-08T13:39:58.651Z,475
2017-02-08T13:41:08.845Z,470
2017-02-08T13:42:18.660Z,465
2017-02-08T13:43:28.088Z,465
2017-02-08T13:44:37.518Z,470
2017-02-08T13:45:46.563Z,460
2017-02-08T13:46:56.756Z,445
2017-02-08T13:48:06.213Z,435
2017-02-08T13:49:16.423Z,425
2017-02-08T13:50:25.472Z,415
2017-02-08T13:51:35.285Z,410
2017-02-08T13:52:44.713Z,400
2017-02-08T13:53:54.146Z,395
2017-02-08T13:55:03.230Z,395
2017-02-08T13:56:12.759Z,390
2017-02-08T13:57:22.957Z,385
2017-02-08T13:58:32.776Z,385
2017-02-08T13:59:42.627Z,375
2017-02-08T14:00:51.675Z,370
2017-02-08T14:02:01.207Z,365
2017-02-08T14:03:09.871Z,360
2017-02-08T14:04:19.688Z,360
2017-02-08T14:05:29.883Z,355
2017-02-08T14:06:40.085Z,350
2017-02-08T14:07:49.669Z,350
2017-02-08T14:08:58.332Z,350
2017-02-08T14:10:07.758Z,345
2017-02-08T14:11:17.185Z,345
2017-02-08T14:12:27.377Z,340
2017-02-08T14:13:36.047Z,335
2017-02-08T14:14:45.094Z,325
2017-02-08T14:15:54.909Z,320
2017-02-08T14:17:05.110Z,315
2017-02-08T14:18:14.540Z,305
2017-02-08T14:19:24.349Z,300
2017-02-08T14:20:33.786Z,290
2017-02-08T14:21:43.606Z,290
2017-02-08T14:22:53.801Z,280
2017-02-08T14:24:03.227Z,275
2017-02-08T14:25:12.658Z,270
2017-02-08T14:26:22.858Z,265
2017-02-08T14:27:32.286Z,260
2017-02-08T14:28:41.332Z,250
2017-02-08T14:29:50.762Z,245
2017-02-08T14:31:00.567Z,240
2017-02-08T14:36:09.992Z,205
2017-02-08T14:42:26.580Z,175
2017-02-08T14:43:35.630Z,170
2017-02-08T14:44:45.444Z,170
2017-02-08T14:45:54.519Z,165
2017-02-08T14:47:04.710Z,160
2017-02-08T14:48:14.909Z,155
2017-02-08T14:49:23.956Z,155
2017-02-08T14:50:33.767Z,150
2017-02-08T14:51:43.961Z,145
2017-02-08T14:52:53.484Z,145
2017-02-08T14:54:02.912Z,140
2017-02-08T14:55:12.724Z,140
2017-02-08T14:56:22.578Z,140
2017-02-08T14:57:32.388Z,140
2017-02-08T14:58:42.305Z,140
2017-02-08T14:59:52.114Z,145
2017-02-08T15:01:01.168Z,150
2017-02-08T15:02:10.982Z,150
2017-02-08T15:03:20.414Z,155
2017-02-08T15:04:30.606Z,155
2017-02-08T15:05:39.264Z,160
2017-02-08T15:06:49.072Z,160
2017-02-08T15:07:58.891Z,155
2017-02-08T15:09:08.700Z,155
2017-02-08T15:10:17.840Z,150
2017-02-08T15:11:27.269Z,145
2017-02-08T15:12:36.694Z,135
2017-02-08T15:13:45.733Z,130
2017-02-08T15:14:55.543Z,130
2017-02-08T15:16:05.788Z,125
2017-02-08T15:17:15.214Z,125
2017-02-08T15:18:24.259Z,120
2017-02-08T15:19:34.070Z,120
2017-02-08T15:20:43.884Z,120
2017-02-08T15:21:53.792Z,115
2017-02-08T15:23:03.255Z,115
2017-02-08T15:24:13.444Z,110
2017-02-08T15:25:23.261Z,110
2017-02-08T15:26:33.080Z,110
2017-02-08T15:27:42.993Z,110
2017-02-08T15:28:52.424Z,105
2017-02-08T15:30:02.240Z,100
2017-02-08T15:31:12.057Z,100
2017-02-08T15:32:22.251Z,95
2017-02-08T15:33:31.776Z,90
2017-02-08T15:34:41.203Z,90
2017-02-08T15:35:50.629Z,90
2017-02-08T15:36:59.686Z,90
2017-02-08T15:38:09.500Z,90
2017-02-08T15:39:19.027Z,90
2017-02-08T15:40:28.456Z,90
2017-02-08T15:41:38.645Z,90
2017-02-08T15:42:48.841Z,85
2017-02-08T15:43:58.653Z,80
2017-02-08T15:45:08.573Z,80
2017-02-08T15:46:18.765Z,75
2017-02-08T15:47:28.196Z,75
2017-02-08T15:48:38.007Z,75
2017-02-08T15:49:47.428Z,70
2017-02-08T15:50:56.190Z,70
2017-02-08T15:52:06.002Z,65
2017-02-08T15:53:15.823Z,65
2017-02-08T15:54:24.866Z,60
2017-02-08T15:55:34.289Z,60
2017-02-08T15:56:43.714Z,55
2017-02-08T15:57:53.524Z,50
2017-02-08T15:59:02.569Z,50
2017-02-08T16:00:12.382Z,45
2017-02-08T16:01:21.805Z,40
2017-02-08T16:02:31.337Z,40
2017-02-08T16:03:40.767Z,35
2017-02-08T16:04:50.195Z,35
2017-02-08T16:06:00.009Z,35
2017-02-08T16:07:09.820Z,30
2017-02-08T16:08:19.250Z,30
2017-02-08T16:09:28.699Z,30
2017-02-08T16:10:38.513Z,25
2017-02-08T16:11:48.326Z,25
2017-02-08T16:12:58.138Z,25
2017-02-08T16:14:07.665Z,20
2017-02-08T16:15:16.714Z,20
2017-02-08T16:16:26.140Z,20
2017-02-08T16:17:35.949Z,20
2017-02-08T16:18:45.761Z,20
2017-02-08T16:19:55.671Z,15
2017-02-08T16:21:05.097Z,15
2017-02-08T16:22:14.143Z,15
2017-02-08T16:23:24.337Z,15
2017-02-08T16:24:34.143Z,10
2017-02-08T16:25:43.285Z,10
2017-02-08T16:26:53.095Z,10
2017-02-08T16:28:02.907Z,10
2017-02-08T16:29:12.717Z,10
2017-02-08T16:30:21.766Z,10
2017-02-08T16:31:31.226Z,5
2017-02-08T16:32:40.653Z,5
2017-02-08T16:33:50.469Z,5
2017-02-08T16:35:00.280Z,5
2017-02-08T16:36:10.092Z,5
2017-02-08T16:37:20.014Z,5
2017-02-08T16:38:29.443Z,5
2017-02-08T16:39:39.248Z,5
2017-02-08T16:40:48.293Z,0
2017-02-08T16:41:57.715Z,0